11:47
Airports
History
Links
Donate
Help keep this website running!
PayPal
Bitcoin
This page is community maintained. The information is intended for PC simulator navigation or reference.
Always use approved charts for navigation.
ETHN
NIEDERSTETTEN
NIEDERSTETTEN (ETHN)
Niederstetten, Baden-Wurttemberg, Germany (97996)
(C)
Lat/Lng:49° 23' 30.6" N / 9° 57' 29.4" E
49.391834 / 9.958167
Elevation:1536'ft / 468mMSL
ID / ICAO:ETHN
Runways:1
Longest:(07-25) 997.8m / 3,274ft Asphalt
Controlled:Yes
Distance To
Airport ID:
Airport Radio Frequencies
Tower: 122.1
Approach: 123.3, 135.6, 139.3
Nearby VORs <50NM
Nearby NDBs
METARUpdated 08-20-17 11:20 GMT
Altimeter: 30.24
Visibility: 6.2 statute miles
Wind: 10 knots (270°)
Temp: 17°c 63°f
Humidity: 51.7%

METAR: ETHN 201120Z 27010KT 9999 FEW042 17/07 Q1024 BLU+

(Powered by phpweather)
Runway 07 / 25
Dimensions:997.8 x 29.9m 3274' x 98'ft
Surface:Asphalt
Edge Lights:High intensity
Runway 07 [A]Runway 25 [B]
Heading:074°TH 254°TH
Lat:
Lng:
49° 23' 26.4"N
9° 57' 5.4"E
49° 23' 34.8"N
9° 57' 53.4"E
ALS:MALS
User Notes and Comments
Google Map
Nearby Airports
(U) Rothenburg ob der Tauber 11.7 NM
EDFR E 90°
(U) Ingelfingen Buehlhof 14.4 NM
EDGI WSW 250°
(U) SCHWABISCH HALL 20.5 NM
EDTY SSW 202°
(U) Wuerzburg Schenkenturm 29.6 NM
EDFW N 354°
(U) Neustadt Aisch 30.9 NM
EDQN ENE 64°
(U) Mosbach Lohrbach 37.6 NM
EDGM W 271°
(C) Backnang-Heiningen 39.7 NM
EDSH SW 214°
VFR Chart
Flight Planning at SkyVector.com